createdAt,value
2023-06-16T08:01:23.381Z,21.65
2023-06-16T08:03:51.631Z,21.64
2023-06-16T08:06:19.796Z,21.64
2023-06-16T08:08:48.768Z,21.64
2023-06-16T08:11:19.194Z,21.64
2023-06-16T08:13:47.232Z,21.65
2023-06-16T08:16:15.505Z,21.66
2023-06-16T08:19:39.326Z,21.66
2023-06-16T08:22:14.780Z,21.68
2023-06-16T08:24:42.940Z,21.67
2023-06-16T08:27:14.930Z,21.69
2023-06-16T08:29:45.760Z,21.70
2023-06-16T08:32:13.950Z,21.69
2023-06-16T08:34:48.649Z,21.70
2023-06-16T08:37:29.649Z,21.71
2023-06-16T08:40:01.982Z,21.72
2023-06-16T08:42:40.748Z,21.73
2023-06-16T08:45:10.281Z,21.73
2023-06-16T08:47:40.694Z,21.71
2023-06-16T08:50:11.434Z,21.71
2023-06-16T08:52:44.637Z,21.73
2023-06-16T08:58:58.644Z,21.71
2023-06-16T09:01:31.232Z,21.70
2023-06-16T09:04:11.147Z,21.71
2023-06-16T09:07:01.893Z,21.73
2023-06-16T09:09:36.282Z,21.73
2023-06-16T09:12:04.827Z,21.74
2023-06-16T09:46:45.453Z,21.75
2023-06-16T09:49:27.135Z,21.75
2023-06-16T09:51:55.662Z,21.76
2023-06-16T09:54:26.234Z,21.75
2023-06-16T09:56:56.596Z,21.72
2023-06-16T09:59:28.960Z,21.72
2023-06-16T10:02:00.030Z,21.73
2023-06-16T10:04:31.514Z,21.73
2023-06-16T10:07:04.991Z,21.74
2023-06-16T10:09:37.518Z,21.74
2023-06-16T10:12:05.874Z,21.73
2023-06-16T10:14:34.177Z,21.73
2023-06-16T10:17:08.285Z,21.72
2023-06-16T10:19:46.124Z,21.70
2023-06-16T10:22:18.512Z,21.69
2023-06-16T10:24:55.862Z,21.71
2023-06-16T10:27:25.034Z,21.69
2023-06-16T10:29:58.048Z,21.68
2023-06-16T10:32:28.247Z,21.68
2023-06-16T10:34:59.199Z,21.70
2023-06-16T10:37:29.546Z,21.70
2023-06-16T10:40:20.711Z,21.71
2023-06-16T10:43:07.103Z,21.71
2023-06-16T10:45:55.242Z,21.71
2023-06-16T10:48:26.321Z,21.71
2023-06-16T10:51:08.920Z,21.72
2023-06-16T10:53:36.998Z,21.73
2023-06-16T10:56:07.000Z,21.74
2023-06-16T10:58:37.788Z,21.75
2023-06-16T11:01:09.403Z,21.75
2023-06-16T11:03:43.914Z,21.74
2023-06-16T11:06:20.665Z,21.75
2023-06-16T11:08:54.890Z,21.73
2023-06-16T11:11:51.663Z,21.73
2023-06-16T11:14:36.566Z,21.72
2023-06-16T11:17:14.839Z,21.71
2023-06-16T11:19:46.033Z,21.75
2023-06-16T11:34:56.050Z,21.73
2023-06-16T11:40:20.430Z,21.73
2023-06-16T11:43:24.894Z,21.76
2023-06-16T11:46:10.635Z,21.76
2023-06-16T11:48:50.290Z,21.76
2023-06-16T11:51:42.841Z,21.77
2023-06-16T11:54:13.918Z,21.78
2023-06-16T11:56:43.830Z,21.79
2023-06-16T12:03:14.022Z,21.79
2023-06-16T12:06:01.737Z,21.79
2023-06-16T12:08:47.219Z,21.79
2023-06-16T12:11:23.969Z,21.78
2023-06-16T12:14:06.243Z,21.78
2023-06-16T12:16:40.938Z,21.77
2023-06-16T12:19:09.159Z,21.77
2023-06-16T12:23:21.212Z,21.78
2023-06-16T12:25:29.230Z,21.80
2023-06-16T12:27:59.301Z,21.80
2023-06-16T12:30:40.378Z,21.79
2023-06-16T12:33:18.472Z,21.78
2023-06-16T12:35:48.902Z,21.78
2023-06-16T12:38:17.198Z,21.76
2023-06-16T12:40:45.768Z,21.75
2023-06-16T12:43:23.306Z,21.76
2023-06-16T12:45:53.435Z,21.80
2023-06-16T12:48:26.578Z,21.81
2023-06-16T12:51:03.961Z,21.81
2023-06-16T12:53:55.289Z,21.81
2023-06-16T12:56:31.573Z,21.82
2023-06-16T12:59:04.768Z,21.82
2023-06-16T13:01:37.227Z,21.84
2023-06-16T13:04:05.504Z,21.84
2023-06-16T13:06:33.741Z,21.83
2023-06-16T13:09:06.877Z,21.84
2023-06-16T13:11:35.930Z,21.83
2023-06-16T13:14:04.314Z,21.83
2023-06-16T13:16:33.451Z,21.84
2023-06-16T13:19:03.101Z,21.85
2023-06-16T13:21:36.122Z,21.84
2023-06-16T13:24:15.716Z,21.84
2023-06-16T13:27:29.121Z,21.84
2023-06-16T13:33:00.141Z,21.84
2023-06-16T13:36:04.749Z,21.84
2023-06-16T13:38:45.573Z,21.85
2023-06-16T13:41:33.710Z,21.85
2023-06-16T13:44:21.227Z,21.86
2023-06-16T13:47:41.831Z,21.86
2023-06-16T13:56:41.103Z,21.87
2023-06-16T14:02:44.077Z,21.84
